createdAt,value
2022-07-25T00:00:14.023Z,99445.03
2022-07-25T00:02:44.285Z,99397.53
2022-07-25T00:05:12.961Z,99178.72
2022-07-25T00:07:40.849Z,99424.06
2022-07-25T00:10:09.842Z,99431.75
2022-07-25T00:12:37.866Z,99427.53
2022-07-25T00:15:06.778Z,99407.97
2022-07-25T00:17:36.081Z,99415.31
2022-07-25T00:20:04.581Z,99382.91
2022-07-25T00:22:35.648Z,99151.44
2022-07-25T00:25:03.695Z,99410.09
2022-07-25T00:27:31.788Z,99400.88
2022-07-25T00:29:59.851Z,99383.50
2022-07-25T00:32:27.810Z,99460.41
2022-07-25T00:34:57.109Z,99381.91
2022-07-25T00:37:25.143Z,99375.81
2022-07-25T00:39:53.182Z,99377.75
2022-07-25T00:42:21.836Z,99357.50
2022-07-25T00:44:50.356Z,99360.59
2022-07-25T00:47:18.784Z,99323.34
2022-07-25T00:49:47.018Z,99370.84
2022-07-25T00:52:17.199Z,99420.06
2022-07-25T00:54:45.278Z,99246.72
2022-07-25T00:57:13.287Z,99360.47
2022-07-25T00:59:41.301Z,99323.22
2022-07-25T01:02:09.422Z,99365.38
2022-07-25T01:04:37.589Z,99291.78
2022-07-25T01:07:05.679Z,99137.56
2022-07-25T01:09:35.255Z,99323.72
2022-07-25T01:12:03.556Z,99360.75
2022-07-25T01:14:31.662Z,99270.00
2022-07-25T01:16:59.651Z,99352.50
2022-07-25T01:19:27.813Z,99195.91
2022-07-25T01:21:57.201Z,99349.31
2022-07-25T01:24:25.228Z,99365.91
2022-07-25T01:26:53.915Z,99162.28
2022-07-25T01:29:21.867Z,99341.03
2022-07-25T01:31:49.879Z,99159.78
2022-07-25T01:34:17.927Z,99307.75
2022-07-25T01:36:45.822Z,99223.44
2022-07-25T01:39:23.125Z,99347.13
2022-07-25T01:41:51.063Z,99341.28
2022-07-25T01:44:19.322Z,99339.81
2022-07-25T01:46:47.550Z,99338.38
2022-07-25T01:49:15.673Z,99344.72
2022-07-25T01:51:43.639Z,99344.00
2022-07-25T01:54:11.693Z,99338.00
2022-07-25T01:56:48.275Z,99298.28
2022-07-25T01:59:16.865Z,99336.78
2022-07-25T02:01:59.954Z,99335.91
2022-07-25T02:04:28.042Z,99122.84
2022-07-25T02:06:56.289Z,99239.00
2022-07-25T02:09:24.159Z,99322.53
2022-07-25T02:11:53.535Z,99294.00
2022-07-25T02:14:21.570Z,99314.84
2022-07-25T02:16:49.802Z,99324.13
2022-07-25T02:19:18.018Z,99294.00
2022-07-25T02:21:46.106Z,99314.47
2022-07-25T02:24:14.038Z,99311.78
2022-07-25T02:26:43.045Z,99310.09
2022-07-25T02:29:12.642Z,99309.38
2022-07-25T02:31:40.625Z,99308.41
2022-07-25T02:44:59.893Z,98869.00
2022-07-25T02:52:03.700Z,98989.63
2022-07-25T02:55:10.379Z,99117.81
2022-07-25T03:01:40.255Z,99231.16
2022-07-25T03:04:39.779Z,98955.44
2022-07-25T03:07:07.832Z,99115.31
2022-07-25T03:09:35.974Z,99270.69
2022-07-25T03:12:06.091Z,99218.94
2022-07-25T03:14:34.491Z,99059.28
2022-07-25T03:17:02.455Z,99105.44
2022-07-25T03:19:30.608Z,99051.59
2022-07-25T03:21:58.654Z,99273.38
2022-07-25T03:24:26.769Z,99189.28
2022-07-25T03:26:55.162Z,99296.75
2022-07-25T03:29:24.948Z,99261.81
2022-07-25T03:31:53.229Z,99145.66
2022-07-25T03:34:21.576Z,99254.34
2022-07-25T03:36:49.666Z,99266.72
2022-07-25T03:39:18.377Z,99143.47
2022-07-25T03:41:46.654Z,99123.56
2022-07-25T03:44:14.583Z,98992.81
2022-07-25T03:46:44.153Z,99307.59
2022-07-25T03:49:12.373Z,99151.41
2022-07-25T03:51:41.793Z,99154.13
2022-07-25T03:54:13.647Z,99231.69
2022-07-25T03:56:50.465Z,98972.06
2022-07-25T03:59:21.794Z,98855.59
2022-07-25T04:01:51.925Z,99198.69
2022-07-25T04:04:20.597Z,98881.28
2022-07-25T04:06:48.748Z,99213.34
2022-07-25T04:09:17.159Z,99211.63
2022-07-25T04:11:45.432Z,99141.56
2022-07-25T04:14:13.598Z,99018.75
2022-07-25T04:16:41.740Z,99079.38
2022-07-25T04:19:11.361Z,99195.78
2022-07-25T04:21:39.747Z,99103.06
2022-07-25T04:24:08.620Z,99225.50
2022-07-25T04:26:37.443Z,99173.38
2022-07-25T04:29:05.419Z,98993.47
2022-07-25T04:31:33.790Z,99219.03
2022-07-25T04:34:40.547Z,99184.75
2022-07-25T04:37:14.673Z,99186.69
2022-07-25T04:39:42.957Z,99093.00
2022-07-25T04:42:11.010Z,99152.50
2022-07-25T04:44:39.166Z,99106.63
2022-07-25T04:47:07.532Z,99178.22
2022-07-25T04:49:37.208Z,98966.19
2022-07-25T04:52:05.411Z,99135.97
2022-07-25T04:54:47.585Z,99191.94
2022-07-25T04:57:15.747Z,99021.31
2022-07-25T04:59:59.912Z,99117.88
2022-07-25T05:02:27.997Z,99090.28
2022-07-25T05:04:57.285Z,99166.56
2022-07-25T05:07:25.337Z,98983.06
2022-07-25T05:09:59.361Z,98934.81
2022-07-25T05:12:27.844Z,99141.78
2022-07-25T05:14:56.219Z,99036.41
2022-07-25T05:17:24.670Z,99275.59
2022-07-25T05:19:52.799Z,99011.53
2022-07-25T05:22:25.179Z,98998.31
2022-07-25T05:24:59.814Z,99189.84
2022-07-25T05:27:30.994Z,98917.50
2022-07-25T05:29:58.927Z,99174.91
2022-07-25T05:32:27.174Z,98814.06
2022-07-25T05:34:55.400Z,98978.94
2022-07-25T05:37:24.583Z,99164.97
2022-07-25T05:39:52.967Z,99106.28
2022-07-25T05:42:21.290Z,99060.03
2022-07-25T05:44:51.065Z,99112.19
2022-07-25T05:47:19.259Z,99006.50
2022-07-25T05:49:47.441Z,99059.56
2022-07-25T05:52:15.690Z,99106.78
2022-07-25T05:54:45.938Z,98935.69
2022-07-25T05:57:13.959Z,99113.56
2022-07-25T05:59:42.352Z,99050.16
2022-07-25T06:02:12.162Z,98952.22
2022-07-25T06:04:41.788Z,99026.72
2022-07-25T06:07:09.894Z,99087.25
2022-07-25T06:09:58.784Z,99110.19
2022-07-25T06:12:26.911Z,99132.72
2022-07-25T06:30:18.593Z,99262.25
2022-07-25T06:47:23.624Z,98720.16
2022-07-25T06:49:54.641Z,99120.22
2022-07-25T06:52:35.570Z,99113.91
2022-07-25T06:55:09.314Z,98868.44
2022-07-25T06:58:04.208Z,99118.97
2022-07-25T07:01:48.269Z,99194.19
2022-07-25T07:22:34.562Z,98989.81
2022-07-25T07:25:03.025Z,98883.41
2022-07-25T07:27:31.243Z,98889.66
2022-07-25T07:30:02.639Z,98804.81
2022-07-25T07:36:15.151Z,99137.78
2022-07-25T07:39:02.242Z,99016.47
2022-07-25T07:41:30.094Z,99023.97
2022-07-25T07:44:02.600Z,99111.34
2022-07-25T07:46:31.282Z,98947.28
2022-07-25T07:48:59.639Z,99110.94
2022-07-25T07:51:58.233Z,99109.16
2022-07-25T07:54:45.042Z,99159.28
2022-07-25T07:57:15.189Z,99027.59
2022-07-25T07:59:43.581Z,98894.75
2022-07-25T08:02:12.094Z,98759.44
2022-07-25T08:04:40.552Z,98834.75
2022-07-25T08:07:08.702Z,99041.22
2022-07-25T08:09:38.357Z,98921.84
2022-07-25T08:12:10.166Z,98901.22
2022-07-25T08:14:38.211Z,99105.03
2022-07-25T08:17:08.791Z,99102.03
2022-07-25T08:19:40.880Z,99024.44
2022-07-25T08:22:09.725Z,99037.81
2022-07-25T08:24:39.762Z,99131.75
2022-07-25T08:27:07.939Z,98985.84
2022-07-25T08:29:36.538Z,99166.69
2022-07-25T08:32:04.839Z,99012.09
2022-07-25T08:37:16.212Z,98884.97
2022-07-25T08:42:35.565Z,98867.38
2022-07-25T08:45:30.528Z,99129.84
2022-07-25T08:51:27.735Z,98869.63
2022-07-25T08:56:51.067Z,98986.00
2022-07-25T08:59:19.416Z,98961.59
2022-07-25T09:02:00.676Z,98824.16
2022-07-25T09:04:50.579Z,99067.78
2022-07-25T09:07:42.094Z,98976.41
2022-07-25T09:14:15.046Z,98927.06
2022-07-25T09:21:19.879Z,99046.84
2022-07-25T09:24:10.821Z,99166.91
2022-07-25T09:38:59.842Z,99124.38
2022-07-25T09:42:27.750Z,98998.97
2022-07-25T09:45:48.855Z,99136.75
2022-07-25T09:48:25.204Z,99009.19
2022-07-25T09:54:45.410Z,98929.78
2022-07-25T14:16:30.304Z,99178.97
2022-07-25T14:18:58.249Z,99209.41
2022-07-25T14:21:26.307Z,99126.25
2022-07-25T14:23:55.671Z,99247.25
2022-07-25T14:29:46.561Z,99031.34
2022-07-25T14:32:16.092Z,99196.97
2022-07-25T14:34:44.522Z,99206.91
2022-07-25T14:37:13.214Z,99242.56
2022-07-25T14:39:41.517Z,99027.06
2022-07-25T14:42:26.065Z,99224.63
2022-07-25T14:44:54.012Z,99190.75
2022-07-25T14:47:23.932Z,99236.09
2022-07-25T14:49:55.771Z,98989.34
2022-07-25T14:52:24.052Z,99130.84
2022-07-25T14:54:52.054Z,99120.97
2022-07-25T14:57:20.086Z,99198.63
2022-07-25T14:59:48.859Z,99062.88
2022-07-25T15:02:18.035Z,99234.38
2022-07-25T15:04:47.500Z,99169.03
2022-07-25T15:07:16.536Z,99198.84
2022-07-25T15:09:45.339Z,99150.25
2022-07-25T15:12:16.639Z,99215.50
2022-07-25T15:14:45.764Z,99238.34
2022-07-25T15:17:13.917Z,99116.59
2022-07-25T15:19:44.965Z,99258.66
2022-07-25T15:22:15.538Z,99048.81
2022-07-25T15:25:17.897Z,99165.63
2022-07-25T15:27:35.833Z,99226.13
2022-07-25T15:30:10.937Z,99236.63
2022-07-25T15:32:40.300Z,99248.28
2022-07-25T15:35:09.503Z,99145.34
2022-07-25T15:37:39.123Z,99340.00
2022-07-25T15:40:08.188Z,99129.84
2022-07-25T15:42:36.358Z,98908.63
2022-07-25T15:45:33.611Z,99197.81
2022-07-25T15:47:56.748Z,99030.25
2022-07-25T15:50:50.302Z,98944.53
2022-07-25T15:53:27.703Z,99022.94
2022-07-25T15:55:55.920Z,99326.34
2022-07-25T15:58:24.660Z,99378.00
2022-07-25T16:00:52.813Z,99168.38
2022-07-25T16:03:22.393Z,99173.06
2022-07-25T16:05:50.623Z,99352.31
2022-07-25T16:08:20.721Z,99234.59
2022-07-25T16:10:50.178Z,99151.91
2022-07-25T16:13:18.193Z,99327.78
2022-07-25T16:15:46.649Z,99180.88
2022-07-25T16:18:15.069Z,98987.41
2022-07-25T16:20:43.148Z,99348.16
2022-07-25T16:23:11.255Z,98993.19
2022-07-25T16:25:46.056Z,99047.41
2022-07-25T16:28:17.047Z,99383.25
2022-07-25T16:30:45.512Z,99294.53
2022-07-25T16:33:13.367Z,99241.94
2022-07-25T16:35:41.318Z,99169.78
2022-07-25T16:38:09.642Z,99244.13
2022-07-25T16:40:37.893Z,99293.16
2022-07-25T16:43:07.219Z,99266.94
2022-07-25T16:45:38.167Z,99300.91
2022-07-25T16:48:12.020Z,99267.03
2022-07-25T16:50:42.182Z,99246.81
2022-07-25T16:53:10.153Z,99294.13
2022-07-25T16:55:38.597Z,99232.03
2022-07-25T16:58:08.079Z,99269.97
2022-07-25T17:00:36.302Z,99230.63
2022-07-25T17:03:04.593Z,99297.50
2022-07-25T17:05:37.549Z,99189.22
2022-07-25T17:08:09.476Z,99231.06
2022-07-25T17:10:39.576Z,99276.50
2022-07-25T17:13:08.874Z,99131.94
2022-07-25T17:15:37.132Z,99317.38
2022-07-25T17:18:05.827Z,99311.84
2022-07-25T17:20:33.969Z,99193.94
2022-07-25T17:23:02.535Z,99276.84
2022-07-25T17:25:31.186Z,98950.88
2022-07-25T17:28:01.177Z,99162.13
2022-07-25T17:30:30.798Z,99320.28
2022-07-25T17:32:59.703Z,99032.06
2022-07-25T17:35:27.876Z,99078.25
2022-07-25T17:37:56.140Z,99195.06
2022-07-25T17:40:24.267Z,99261.66
2022-07-25T17:42:52.288Z,99318.72
2022-07-25T17:45:20.600Z,99348.16
2022-07-25T17:47:51.027Z,99131.75
2022-07-25T17:50:20.114Z,99134.25
2022-07-25T17:52:48.451Z,99414.84
2022-07-25T17:55:19.680Z,99067.09
2022-07-25T17:57:53.937Z,99266.63
2022-07-25T18:00:23.643Z,99022.50
2022-07-25T18:02:54.100Z,99333.97
2022-07-25T18:05:22.086Z,99335.81
2022-07-25T18:07:50.709Z,99330.56
2022-07-25T18:10:18.888Z,99265.56
2022-07-25T18:12:47.074Z,99332.84
2022-07-25T18:15:15.570Z,99334.66
2022-07-25T18:17:44.508Z,99329.28
2022-07-25T18:20:15.470Z,99311.66
2022-07-25T18:22:43.740Z,99292.84
2022-07-25T18:25:12.749Z,99327.41
2022-07-25T18:27:41.377Z,99328.94
2022-07-25T18:30:10.750Z,99284.91
2022-07-25T18:32:38.720Z,99342.34
2022-07-25T18:35:07.893Z,99340.41
2022-07-25T18:37:37.688Z,99313.66
2022-07-25T18:40:06.968Z,99352.75
2022-07-25T18:42:35.969Z,99359.25
2022-07-25T18:45:04.139Z,99356.97
2022-07-25T18:47:34.904Z,99361.06
2022-07-25T18:50:02.967Z,99292.44
2022-07-25T18:52:34.934Z,99357.44
2022-07-25T18:55:04.572Z,99333.94
2022-07-25T18:57:32.625Z,99366.31
2022-07-25T19:00:03.219Z,99347.69
2022-07-25T19:02:31.802Z,99373.59
2022-07-25T19:04:59.867Z,99369.63
2022-07-25T19:07:29.852Z,99379.31
2022-07-25T19:09:57.852Z,99304.53
2022-07-25T19:12:28.497Z,99369.00
2022-07-25T19:14:56.923Z,99403.66
2022-07-25T19:17:25.079Z,99210.31
2022-07-25T19:19:53.427Z,99392.09
2022-07-25T19:22:21.344Z,99398.13
2022-07-25T19:24:49.242Z,99391.94
2022-07-25T19:27:18.214Z,99389.00
2022-07-25T19:29:47.554Z,99357.38
2022-07-25T19:32:17.930Z,99410.06
2022-07-25T19:34:48.303Z,99399.84
2022-07-25T19:37:16.471Z,99413.97
2022-07-25T19:39:47.549Z,99423.50
2022-07-25T19:42:15.453Z,99335.09
2022-07-25T19:44:43.529Z,99428.88
2022-07-25T19:47:12.925Z,99265.53
2022-07-25T19:49:41.137Z,99374.56
2022-07-25T19:52:09.243Z,99453.00
2022-07-25T19:54:37.403Z,99425.66
2022-07-25T19:57:05.558Z,99382.59
2022-07-25T19:59:34.634Z,99429.44
2022-07-25T20:02:02.761Z,99438.69
2022-07-25T20:04:34.518Z,99351.28
2022-07-25T20:07:03.146Z,99432.97
2022-07-25T20:09:31.420Z,99283.59
2022-07-25T20:11:59.493Z,99444.78
2022-07-25T20:14:27.490Z,99443.06
2022-07-25T20:16:57.836Z,99442.44
2022-07-25T20:19:26.148Z,99445.25
2022-07-25T20:21:55.581Z,99441.94
2022-07-25T20:24:23.524Z,99350.22
2022-07-25T20:26:51.662Z,99368.81
2022-07-25T20:29:19.628Z,99356.59
2022-07-25T20:31:47.728Z,99270.63
2022-07-25T20:34:16.668Z,99367.19
2022-07-25T20:36:47.553Z,99359.78
2022-07-25T20:44:28.470Z,99239.22
2022-07-25T20:47:38.722Z,98970.94
2022-07-25T20:50:14.613Z,99328.53
2022-07-25T20:52:46.079Z,99281.44
2022-07-25T20:55:44.272Z,99451.66
2022-07-25T20:58:44.291Z,98986.50
2022-07-25T21:04:35.039Z,99458.50
2022-07-25T21:07:23.477Z,99485.91
2022-07-25T21:13:32.983Z,99414.47
2022-07-25T21:16:04.448Z,99165.47
2022-07-25T21:18:32.770Z,99065.03
2022-07-25T21:21:08.982Z,99377.38
2022-07-25T22:04:12.370Z,99534.13
2022-07-25T22:06:40.715Z,99481.63
2022-07-25T22:09:09.477Z,99397.81
2022-07-25T22:11:42.817Z,99303.28
2022-07-25T22:14:14.668Z,99549.06
2022-07-25T22:16:43.072Z,99326.13
2022-07-25T22:19:27.989Z,99203.44
2022-07-25T22:22:04.141Z,99472.28
2022-07-25T22:24:32.563Z,99159.63
2022-07-25T22:27:07.411Z,99386.00
2022-07-25T22:29:40.144Z,99462.44
2022-07-25T22:32:12.083Z,99572.88
2022-07-25T22:34:46.087Z,99471.63
2022-07-25T22:37:17.269Z,99581.84
2022-07-25T22:39:47.810Z,99364.34
2022-07-25T22:42:16.406Z,99652.53
2022-07-25T22:44:44.759Z,99551.00
2022-07-25T22:47:12.802Z,99414.91
2022-07-25T22:49:42.631Z,99467.47
2022-07-25T22:52:10.690Z,99377.16
2022-07-25T22:54:39.124Z,99350.06
2022-07-25T22:57:07.573Z,99333.53
2022-07-25T22:59:36.858Z,99310.97
2022-07-25T23:02:05.141Z,99331.00
2022-07-25T23:04:34.441Z,99415.13
2022-07-25T23:07:04.064Z,99541.94
2022-07-25T23:09:34.751Z,99565.41
2022-07-25T23:12:05.012Z,99401.91
2022-07-25T23:14:33.507Z,99117.19
2022-07-25T23:17:15.694Z,99490.31
2022-07-25T23:19:43.892Z,99393.66
2022-07-25T23:22:14.606Z,99289.00
2022-07-25T23:24:42.814Z,99551.53
2022-07-25T23:27:11.353Z,99484.44
2022-07-25T23:29:39.549Z,99570.59
2022-07-25T23:32:08.660Z,99277.75
2022-07-25T23:34:37.268Z,99349.56
2022-07-25T23:37:33.720Z,99591.38
2022-07-25T23:40:02.069Z,99601.53
2022-07-25T23:42:40.822Z,99410.94
2022-07-25T23:45:13.585Z,99130.09
2022-07-25T23:47:42.734Z,99446.25
2022-07-25T23:50:15.612Z,99578.75
2022-07-25T23:53:03.827Z,99551.34
2022-07-25T23:55:32.248Z,99265.59
2022-07-25T23:58:01.708Z,99577.28
